createdAt,value
2022-08-30T00:02:43.689Z,99653.72
2022-08-30T00:05:11.123Z,99650.56
2022-08-30T00:07:37.767Z,99629.31
2022-08-30T00:10:04.870Z,99623.69
2022-08-30T00:12:32.789Z,99627.81
2022-08-30T00:14:59.629Z,99625.91
2022-08-30T00:17:26.619Z,99624.75
2022-08-30T00:19:56.008Z,99627.78
2022-08-30T00:22:22.647Z,99623.16
2022-08-30T00:24:49.693Z,99610.75
2022-08-30T00:27:16.635Z,99617.75
2022-08-30T00:29:43.338Z,99609.22
2022-08-30T00:32:10.085Z,99608.47
2022-08-30T00:34:36.658Z,99599.81
2022-08-30T00:37:03.564Z,99598.84
2022-08-30T00:39:30.148Z,99613.94
2022-08-30T00:41:56.798Z,99610.34
2022-08-30T00:44:24.227Z,99611.03
2022-08-30T00:46:50.829Z,99611.88
2022-08-30T00:49:18.042Z,99612.00
2022-08-30T00:51:44.819Z,99603.44
2022-08-30T00:54:12.419Z,99602.53
2022-08-30T00:56:39.240Z,99594.91
2022-08-30T00:59:07.849Z,99585.78
2022-08-30T01:01:36.191Z,99571.09
2022-08-30T01:04:05.851Z,99570.53
2022-08-30T01:06:34.214Z,99571.56
2022-08-30T01:09:03.000Z,99566.50
2022-08-30T01:11:32.596Z,99563.69
2022-08-30T01:13:59.918Z,99559.38
2022-08-30T01:16:27.317Z,99564.28
2022-08-30T01:19:17.436Z,99570.34
2022-08-30T01:22:37.981Z,99565.44
2022-08-30T01:25:08.216Z,99582.59
2022-08-30T01:31:28.030Z,99591.34
2022-08-30T01:33:54.635Z,99599.97
2022-08-30T01:36:22.092Z,99578.38
2022-08-30T01:41:37.077Z,99563.13
2022-08-30T01:44:41.041Z,99554.84
2022-08-30T01:47:07.732Z,99543.78
2022-08-30T01:49:34.253Z,99541.75
2022-08-30T01:52:01.596Z,99543.63
2022-08-30T01:54:36.604Z,99554.84
2022-08-30T01:57:20.963Z,99541.22
2022-08-30T01:59:50.042Z,99524.84
2022-08-30T02:02:43.940Z,99526.47
2022-08-30T02:05:11.578Z,99516.44
2022-08-30T02:10:48.985Z,99522.94
2022-08-30T02:13:15.727Z,99528.31
2022-08-30T02:15:42.458Z,99533.53
2022-08-30T02:18:10.826Z,99545.50
2022-08-30T02:20:39.555Z,99543.97
2022-08-30T02:23:06.205Z,99564.97
2022-08-30T02:25:32.778Z,99572.25
2022-08-30T02:27:59.386Z,99562.75
2022-08-30T02:30:26.766Z,99554.03
2022-08-30T02:32:53.879Z,99548.03
2022-08-30T02:35:20.618Z,99560.06
2022-08-30T02:37:47.170Z,99557.41
2022-08-30T02:40:14.144Z,99567.97
2022-08-30T02:42:41.790Z,99567.84
2022-08-30T02:45:08.887Z,99553.31
2022-08-30T02:47:35.467Z,99549.94
2022-08-30T02:50:07.098Z,99549.88
2022-08-30T02:52:33.711Z,99531.09
2022-08-30T02:55:00.254Z,99512.50
2022-08-30T02:57:27.100Z,99518.06
2022-08-30T02:59:53.669Z,99488.19
2022-08-30T03:02:22.178Z,99503.38
2022-08-30T03:04:49.368Z,99521.50
2022-08-30T03:07:16.209Z,99535.91
2022-08-30T03:09:42.830Z,99529.50
2022-08-30T03:12:10.362Z,99509.84
2022-08-30T03:14:38.835Z,99493.56
2022-08-30T03:17:07.234Z,99483.75
2022-08-30T03:19:54.238Z,99472.84
2022-08-30T03:22:20.839Z,99468.31
2022-08-30T03:24:47.339Z,99480.22
2022-08-30T03:27:14.085Z,99475.25
2022-08-30T03:29:40.820Z,99464.13
2022-08-30T03:32:07.496Z,99460.38
2022-08-30T03:34:34.257Z,99472.59
2022-08-30T03:37:01.535Z,99458.16
2022-08-30T03:39:28.876Z,99434.00
2022-08-30T03:41:55.437Z,99438.16
2022-08-30T03:44:22.083Z,99453.56
2022-08-30T03:46:49.367Z,99464.72
2022-08-30T03:49:16.184Z,99479.38
2022-08-30T03:51:43.290Z,99483.78
2022-08-30T03:54:10.115Z,99483.75
2022-08-30T03:56:37.155Z,99495.03
2022-08-30T03:59:04.227Z,99491.56
2022-08-30T04:01:31.007Z,99497.59
2022-08-30T04:03:57.720Z,99512.41
2022-08-30T04:06:24.366Z,99525.38
2022-08-30T04:08:52.018Z,99524.56
2022-08-30T04:11:18.876Z,99514.09
2022-08-30T04:13:45.496Z,99524.31
2022-08-30T04:16:12.597Z,99523.56
2022-08-30T04:18:39.284Z,99527.94
2022-08-30T04:21:06.528Z,99542.47
2022-08-30T04:23:33.506Z,99538.06
2022-08-30T04:26:00.758Z,99538.09
2022-08-30T04:28:27.387Z,99535.66
2022-08-30T04:30:53.960Z,99534.84
2022-08-30T04:33:21.094Z,99532.88
2022-08-30T04:35:49.359Z,99539.03
2022-08-30T04:38:17.334Z,99542.56
2022-08-30T04:43:28.953Z,99525.41
2022-08-30T04:45:57.955Z,99527.75
2022-08-30T04:48:24.545Z,99555.41
2022-08-30T04:50:51.099Z,99564.78
2022-08-30T04:53:17.858Z,99558.16
2022-08-30T04:55:44.549Z,99553.63
2022-08-30T04:58:11.503Z,99562.38
2022-08-30T05:00:38.355Z,99560.81
2022-08-30T05:03:04.931Z,99554.00
2022-08-30T05:08:46.696Z,99581.34
2022-08-30T05:11:15.497Z,99603.16
2022-08-30T05:13:42.102Z,99599.84
2022-08-30T05:16:09.110Z,99587.78
2022-08-30T05:18:37.118Z,99584.09
2022-08-30T05:21:26.496Z,99627.34
2022-08-30T05:24:00.939Z,99627.28
2022-08-30T05:26:31.842Z,99630.78
2022-08-30T05:29:19.071Z,99645.66
2022-08-30T05:31:45.698Z,99645.06
2022-08-30T05:34:12.259Z,99625.19
2022-08-30T05:36:40.099Z,99615.94
2022-08-30T05:39:09.111Z,99638.06
2022-08-30T05:41:36.787Z,99648.63
2022-08-30T05:44:05.193Z,99647.78
2022-08-30T05:50:00.381Z,99656.38
2022-08-30T05:52:27.311Z,99653.38
2022-08-30T05:55:34.822Z,99646.34
2022-08-30T05:58:01.901Z,99635.69
2022-08-30T06:00:30.564Z,99647.75
2022-08-30T06:02:57.385Z,99655.59
2022-08-30T06:05:24.102Z,99658.03
2022-08-30T06:07:50.970Z,99686.34
2022-08-30T06:10:17.665Z,99683.84
2022-08-30T06:12:44.316Z,99674.53
2022-08-30T06:15:11.558Z,99677.09
2022-08-30T06:17:39.707Z,99685.56
2022-08-30T06:20:07.189Z,99698.50
2022-08-30T06:22:33.811Z,99703.63
2022-08-30T06:25:00.667Z,99713.69
2022-08-30T06:27:27.252Z,99724.78
2022-08-30T06:29:54.003Z,99729.28
2022-08-30T06:32:20.774Z,99731.72
2022-08-30T06:34:48.300Z,99732.53
2022-08-30T06:37:29.881Z,99750.44
2022-08-30T06:40:03.702Z,99767.56
2022-08-30T06:42:33.426Z,99755.22
2022-08-30T06:45:02.396Z,99738.53
2022-08-30T06:47:29.888Z,99755.75
2022-08-30T06:49:57.662Z,99766.78
2022-08-30T06:52:24.508Z,99772.97
2022-08-30T06:54:53.678Z,99775.00
2022-08-30T06:57:20.223Z,99762.94
2022-08-30T06:59:46.771Z,99773.13
2022-08-30T07:02:13.330Z,99761.19
2022-08-30T07:04:40.079Z,99762.97
2022-08-30T07:07:06.732Z,99755.97
2022-08-30T07:09:33.518Z,99772.91
2022-08-30T07:12:06.669Z,99795.03
2022-08-30T07:14:33.223Z,99796.81
2022-08-30T07:16:59.805Z,99806.34
2022-08-30T07:19:26.368Z,99811.41
2022-08-30T07:21:52.962Z,99819.03
2022-08-30T07:24:20.127Z,99827.72
2022-08-30T07:30:01.157Z,99828.88
2022-08-30T07:32:27.753Z,99834.72
2022-08-30T07:34:55.489Z,99834.56
2022-08-30T07:37:22.052Z,99832.56
2022-08-30T07:39:48.588Z,99837.50
2022-08-30T07:42:16.145Z,99837.22
2022-08-30T07:44:43.743Z,99846.88
2022-08-30T07:47:10.828Z,99848.75
2022-08-30T07:49:37.901Z,99850.09
2022-08-30T07:52:05.131Z,99852.63
2022-08-30T07:54:35.086Z,99870.66
2022-08-30T07:57:02.292Z,99867.81
2022-08-30T07:59:31.794Z,99877.19
2022-08-30T08:02:15.893Z,99878.56
2022-08-30T08:04:43.939Z,99887.03
2022-08-30T08:07:11.891Z,99879.84
2022-08-30T08:09:38.973Z,99887.56
2022-08-30T08:12:07.596Z,99888.47
2022-08-30T08:14:34.382Z,99898.97
2022-08-30T08:17:01.556Z,99896.84
2022-08-30T08:19:28.484Z,99901.53
2022-08-30T08:22:15.637Z,99899.66
2022-08-30T08:24:44.160Z,99914.19
2022-08-30T08:27:11.161Z,99903.66
2022-08-30T08:29:37.750Z,99911.38
2022-08-30T08:32:05.346Z,99903.09
2022-08-30T08:34:32.307Z,99896.31
2022-08-30T08:36:58.916Z,99907.19
2022-08-30T08:39:25.580Z,99919.28
2022-08-30T08:42:30.011Z,99911.16
2022-08-30T08:45:21.243Z,99923.59
2022-08-30T08:48:58.696Z,99923.44
2022-08-30T08:55:29.795Z,99925.97
2022-08-30T08:57:58.866Z,99930.53
2022-08-30T09:00:25.561Z,99933.53
2022-08-30T09:03:00.913Z,99933.84
2022-08-30T09:08:18.530Z,99941.91
2022-08-30T09:11:51.982Z,99939.56
2022-08-30T09:14:36.268Z,99943.97
2022-08-30T09:17:09.914Z,99942.34
2022-08-30T09:19:41.333Z,99935.84
2022-08-30T09:22:23.462Z,99943.00
2022-08-30T09:27:36.135Z,99943.56
2022-08-30T09:30:50.497Z,99939.91
2022-08-30T09:36:26.938Z,99936.53
2022-08-30T09:39:03.050Z,99936.06
2022-08-30T09:45:49.832Z,99934.97
2022-08-30T09:48:35.281Z,99932.38
2022-08-30T09:51:11.143Z,99939.31
2022-08-30T09:54:31.106Z,99935.19
2022-08-30T09:57:38.202Z,99928.81
2022-08-30T10:03:58.040Z,99927.72
2022-08-30T10:06:55.515Z,99928.75
2022-08-30T10:10:08.087Z,99926.31
2022-08-30T10:13:06.077Z,99923.34
2022-08-30T10:16:23.399Z,99924.19
2022-08-30T10:19:29.780Z,99915.88
2022-08-30T10:25:48.271Z,99919.22
2022-08-30T10:29:02.132Z,99912.63
2022-08-30T10:31:47.756Z,99914.59
2022-08-30T10:34:55.770Z,99910.25
2022-08-30T10:38:08.885Z,99905.28
2022-08-30T10:44:06.007Z,99900.13
2022-08-30T10:50:39.058Z,99897.28
2022-08-30T10:54:18.930Z,99886.38
2022-08-30T10:57:12.514Z,99882.19
2022-08-30T11:07:57.705Z,99874.41
2022-08-30T11:11:17.546Z,99880.09
2022-08-30T11:13:45.782Z,99874.41
2022-08-30T11:16:15.907Z,99867.03
2022-08-30T11:19:02.798Z,99873.75
2022-08-30T11:21:38.804Z,99872.94
2022-08-30T11:25:02.417Z,99874.31
2022-08-30T11:31:07.712Z,99868.69
2022-08-30T11:33:59.214Z,99865.09
2022-08-30T11:40:23.043Z,99858.25
2022-08-30T11:43:29.782Z,99864.06
2022-08-30T11:46:26.810Z,99863.13
2022-08-30T11:49:02.471Z,99861.13
2022-08-30T11:52:27.445Z,99853.59
2022-08-30T11:55:40.092Z,99860.63
2022-08-30T11:58:44.962Z,99857.75
2022-08-30T12:01:40.784Z,99840.44
2022-08-30T12:04:06.012Z,99841.31
2022-08-30T12:07:52.084Z,99847.00
2022-08-30T12:10:45.462Z,99836.22
2022-08-30T12:14:02.918Z,99831.94
2022-08-30T12:16:35.202Z,99838.44
2022-08-30T12:19:52.887Z,99831.19
2022-08-30T12:22:22.320Z,99832.44
2022-08-30T12:24:52.157Z,99828.63
2022-08-30T12:28:00.582Z,99828.44
2022-08-30T12:30:43.914Z,99823.75
2022-08-30T12:33:46.997Z,99813.75
2022-08-30T12:36:50.007Z,99808.38
2022-08-30T12:45:28.883Z,99803.34
2022-08-30T12:47:58.704Z,99803.34
2022-08-30T12:51:07.192Z,99800.84
2022-08-30T12:54:45.378Z,99800.78
2022-08-30T12:58:34.737Z,99793.03
2022-08-30T13:01:16.265Z,99778.34
2022-08-30T13:04:39.680Z,99779.81
2022-08-30T13:07:06.642Z,99774.66
2022-08-30T13:12:26.102Z,99777.97
2022-08-30T13:15:18.577Z,99772.94
2022-08-30T13:17:47.192Z,99772.59
2022-08-30T13:20:16.528Z,99760.25
2022-08-30T13:23:07.901Z,99768.88
2022-08-30T13:25:38.201Z,99757.75
2022-08-30T13:28:06.949Z,99756.59
2022-08-30T13:30:34.352Z,99758.75
2022-08-30T13:35:45.050Z,99749.81
2022-08-30T13:38:11.672Z,99751.53
2022-08-30T13:40:38.270Z,99745.00
2022-08-30T13:43:04.941Z,99738.03
2022-08-30T13:45:47.145Z,99738.22
2022-08-30T13:48:25.059Z,99737.34
2022-08-30T13:51:05.297Z,99744.56
2022-08-30T13:56:19.553Z,99720.88
2022-08-30T13:58:47.996Z,99729.63
2022-08-30T14:01:14.663Z,99718.34
2022-08-30T14:04:13.161Z,99721.84
2022-08-30T14:06:33.915Z,99720.63
2022-08-30T14:09:26.538Z,99705.84
2022-08-30T14:11:53.125Z,99707.09
2022-08-30T14:14:32.469Z,99717.94
2022-08-30T14:17:06.693Z,99717.19
2022-08-30T14:19:33.559Z,99714.06
2022-08-30T14:22:00.132Z,99715.97
2022-08-30T14:24:26.660Z,99708.41
2022-08-30T14:26:53.299Z,99701.41
2022-08-30T14:29:23.005Z,99696.25
2022-08-30T14:32:10.298Z,99700.44
2022-08-30T14:34:37.153Z,99694.97
2022-08-30T14:37:06.704Z,99689.03
2022-08-30T14:39:33.887Z,99685.06
2022-08-30T14:42:03.511Z,99694.84
2022-08-30T14:44:45.724Z,99686.28
2022-08-30T14:47:17.750Z,99679.72
2022-08-30T14:49:44.263Z,99682.88
2022-08-30T14:52:10.838Z,99680.50
2022-08-30T14:54:37.662Z,99693.19
2022-08-30T14:57:04.368Z,99683.44
2022-08-30T14:59:31.132Z,99681.09
2022-08-30T15:01:57.898Z,99673.41
2022-08-30T15:04:24.521Z,99667.88
2022-08-30T15:06:52.095Z,99667.25
2022-08-30T15:09:43.200Z,99659.47
2022-08-30T15:12:09.961Z,99656.81
2022-08-30T15:14:37.114Z,99658.69
2022-08-30T15:17:05.538Z,99660.75
2022-08-30T15:19:32.965Z,99652.47
2022-08-30T15:22:02.585Z,99660.66
2022-08-30T15:24:30.148Z,99655.38
2022-08-30T15:26:59.534Z,99650.34
2022-08-30T15:29:27.593Z,99655.88
2022-08-30T15:32:14.186Z,99655.78
2022-08-30T15:34:40.751Z,99646.81
2022-08-30T15:37:07.873Z,99645.34
2022-08-30T15:39:34.883Z,99648.56
2022-08-30T15:42:02.142Z,99640.66
2022-08-30T15:44:32.501Z,99643.41
2022-08-30T15:47:05.206Z,99650.91
2022-08-30T15:53:04.098Z,99643.25
2022-08-30T15:56:24.699Z,99635.63
2022-08-30T15:58:51.728Z,99641.06
2022-08-30T16:01:30.423Z,99641.25
2022-08-30T16:04:07.705Z,99643.41
2022-08-30T16:06:37.599Z,99637.91
2022-08-30T16:09:06.554Z,99631.81
2022-08-30T16:11:34.154Z,99635.00
2022-08-30T16:14:01.661Z,99635.09
2022-08-30T16:16:28.531Z,99639.00
2022-08-30T16:18:55.488Z,99628.75
2022-08-30T16:21:48.086Z,99623.47
2022-08-30T16:24:15.386Z,99629.19
2022-08-30T16:26:43.462Z,99625.22
2022-08-30T16:29:12.367Z,99635.31
2022-08-30T16:31:44.482Z,99624.84
2022-08-30T16:34:13.776Z,99621.97
2022-08-30T16:36:40.465Z,99628.03
2022-08-30T16:39:09.526Z,99631.63
2022-08-30T16:41:37.678Z,99630.97
2022-08-30T16:44:05.574Z,99629.28
2022-08-30T16:46:34.064Z,99627.97
2022-08-30T16:49:02.234Z,99641.09
2022-08-30T16:51:30.617Z,99637.69
2022-08-30T16:53:59.211Z,99635.88
2022-08-30T16:56:27.340Z,99637.66
2022-08-30T16:59:01.108Z,99635.13
2022-08-30T17:01:44.753Z,99640.44
2022-08-30T17:04:18.204Z,99645.63
2022-08-30T17:07:01.334Z,99644.69
2022-08-30T17:09:46.060Z,99639.19
2022-08-30T17:12:13.538Z,99638.72
2022-08-30T17:14:40.989Z,99638.06
2022-08-30T17:17:27.505Z,99634.66
2022-08-30T17:19:56.284Z,99643.56
2022-08-30T17:22:22.826Z,99640.34
2022-08-30T17:24:49.668Z,99640.06
2022-08-30T17:27:16.514Z,99642.53
2022-08-30T17:29:43.139Z,99640.06
2022-08-30T17:32:09.794Z,99640.16
2022-08-30T17:34:37.133Z,99646.41
2022-08-30T17:37:04.121Z,99639.13
2022-08-30T17:39:30.906Z,99643.09
2022-08-30T17:41:58.428Z,99639.19
2022-08-30T17:47:10.255Z,99657.50
2022-08-30T17:49:36.864Z,99651.63
2022-08-30T17:52:04.469Z,99649.59
2022-08-30T17:54:33.348Z,99641.63
2022-08-30T17:57:01.177Z,99650.34
2022-08-30T17:59:29.306Z,99651.75
2022-08-30T18:02:15.938Z,99653.41
2022-08-30T18:05:03.158Z,99658.03
2022-08-30T18:07:29.765Z,99664.25
2022-08-30T18:09:57.643Z,99670.81
2022-08-30T18:12:26.907Z,99659.84
2022-08-30T18:14:54.203Z,99666.19
2022-08-30T18:17:20.956Z,99678.44
2022-08-30T18:19:47.589Z,99684.88
2022-08-30T18:22:16.438Z,99686.09
2022-08-30T18:24:43.353Z,99676.94
2022-08-30T18:27:09.894Z,99689.09
2022-08-30T18:29:38.009Z,99689.91
2022-08-30T18:32:05.690Z,99698.28
2022-08-30T18:34:51.878Z,99694.25
2022-08-30T18:37:18.423Z,99693.56
2022-08-30T18:39:45.705Z,99693.94
2022-08-30T18:42:14.730Z,99704.78
2022-08-30T18:44:43.632Z,99706.88
2022-08-30T18:47:10.784Z,99706.16
2022-08-30T18:49:37.799Z,99708.81
2022-08-30T18:52:06.665Z,99709.81
2022-08-30T18:55:12.046Z,99714.38
2022-08-30T18:57:38.714Z,99717.72
2022-08-30T19:00:05.965Z,99718.94
2022-08-30T19:02:32.621Z,99718.72
2022-08-30T19:04:59.299Z,99722.41
2022-08-30T19:07:29.922Z,99721.47
2022-08-30T19:10:16.444Z,99724.91
2022-08-30T19:13:03.615Z,99725.91
2022-08-30T19:15:34.207Z,99729.91
2022-08-30T19:18:02.024Z,99737.91
2022-08-30T19:20:50.382Z,99743.22
2022-08-30T19:23:55.287Z,99754.78
2022-08-30T19:26:22.056Z,99752.25
2022-08-30T19:28:48.889Z,99755.31
2022-08-30T19:31:15.522Z,99756.66
2022-08-30T19:33:42.310Z,99758.72
2022-08-30T19:36:08.967Z,99766.66
2022-08-30T19:38:36.689Z,99770.41
2022-08-30T19:41:04.626Z,99774.19
2022-08-30T19:43:31.793Z,99771.69
2022-08-30T19:45:59.996Z,99779.81
2022-08-30T19:48:32.018Z,99772.91
2022-08-30T19:51:15.659Z,99781.94
2022-08-30T19:53:43.209Z,99785.47
2022-08-30T19:56:10.166Z,99782.16
2022-08-30T19:58:36.999Z,99784.78
2022-08-30T20:01:10.806Z,99786.00
2022-08-30T20:03:51.936Z,99786.47
2022-08-30T20:06:20.513Z,99784.75
2022-08-30T20:08:47.466Z,99790.06
2022-08-30T20:11:19.733Z,99783.09
2022-08-30T20:13:47.572Z,99788.25
2022-08-30T20:16:15.070Z,99777.09
2022-08-30T20:18:43.271Z,99780.75
2022-08-30T20:21:13.445Z,99785.16
2022-08-30T20:24:01.003Z,99792.47
2022-08-30T20:26:33.753Z,99791.00
2022-08-30T20:29:14.974Z,99792.03
2022-08-30T20:31:41.553Z,99793.19
2022-08-30T20:34:08.500Z,99791.66
2022-08-30T20:36:35.022Z,99794.44
2022-08-30T20:39:02.268Z,99797.97
2022-08-30T20:41:32.073Z,99797.16
2022-08-30T20:43:59.700Z,99799.78
2022-08-30T20:46:28.565Z,99800.75
2022-08-30T20:49:13.900Z,99798.97
2022-08-30T20:51:41.156Z,99808.66
2022-08-30T20:54:09.010Z,99803.44
2022-08-30T20:56:36.104Z,99806.94
2022-08-30T20:59:04.269Z,99819.59
2022-08-30T21:02:01.477Z,99814.34
2022-08-30T21:04:28.808Z,99817.84
2022-08-30T21:06:55.311Z,99818.84
2022-08-30T21:09:22.102Z,99811.84
2022-08-30T21:11:48.818Z,99806.34
2022-08-30T21:14:15.457Z,99812.56
2022-08-30T21:16:42.130Z,99810.94
2022-08-30T21:19:08.816Z,99799.09
2022-08-30T21:21:35.451Z,99810.34
2022-08-30T21:27:15.312Z,99799.97
2022-08-30T21:29:42.106Z,99791.47
2022-08-30T21:32:08.698Z,99795.75
2022-08-30T21:37:45.596Z,99803.88
2022-08-30T21:40:14.941Z,99800.34
2022-08-30T21:42:41.996Z,99804.97
2022-08-30T21:45:09.016Z,99798.75
2022-08-30T21:47:35.676Z,99806.84
2022-08-30T21:50:02.339Z,99804.00
2022-08-30T21:52:28.877Z,99804.31
2022-08-30T21:54:55.574Z,99811.72
2022-08-30T21:57:22.158Z,99810.69
2022-08-30T21:59:48.688Z,99805.56
2022-08-30T22:02:15.230Z,99800.47
2022-08-30T22:04:41.830Z,99803.81
2022-08-30T22:07:08.529Z,99807.75
2022-08-30T22:09:35.651Z,99804.31
2022-08-30T22:14:46.499Z,99811.38
2022-08-30T22:17:13.090Z,99813.63
2022-08-30T22:19:39.623Z,99815.38
2022-08-30T22:22:06.608Z,99821.91
2022-08-30T22:24:33.204Z,99830.41
2022-08-30T22:27:01.857Z,99827.09
2022-08-30T22:29:29.288Z,99831.59
2022-08-30T22:31:56.549Z,99830.97
2022-08-30T22:34:23.135Z,99834.81
2022-08-30T22:36:49.669Z,99833.94
2022-08-30T22:39:16.295Z,99840.13
2022-08-30T22:41:44.170Z,99842.50
2022-08-30T22:44:11.962Z,99843.59
2022-08-30T22:46:38.689Z,99842.28
2022-08-30T22:49:06.963Z,99844.28
2022-08-30T22:51:33.990Z,99836.25
2022-08-30T22:54:02.027Z,99842.50
2022-08-30T22:56:29.377Z,99838.56
2022-08-30T22:58:56.543Z,99842.38
2022-08-30T23:01:57.787Z,99837.88
2022-08-30T23:04:24.575Z,99840.81
2022-08-30T23:06:52.384Z,99841.69
2022-08-30T23:09:18.986Z,99842.88
2022-08-30T23:11:45.494Z,99841.28
2022-08-30T23:14:12.050Z,99838.88
2022-08-30T23:16:38.631Z,99830.66
2022-08-30T23:19:05.586Z,99830.44
2022-08-30T23:21:32.333Z,99823.00
2022-08-30T23:24:24.512Z,99822.94
2022-08-30T23:30:23.013Z,99823.19
2022-08-30T23:46:04.070Z,99818.41
2022-08-30T23:48:52.455Z,99818.25
